Time;durP1;ratioP1;P1;durP2;ratioP2;P2;SDS_P1;SDS_P2;PMS_P1;PMS_P2;Temp;Humidity;BMP_temperature;BMP_pressure;BME280_temperature;BME280_humidity;BME280_pressure;Samples;Min_cycle;Max_cycle;Signal;HPM_P1;HPM_P2
2022/03/16 00:00:40;;;;;;;65.43;34.00;;;7.40;64.30;;;;;;7384625;19;20086;-63
2022/03/16 00:03:10;;;;;;;63.75;34.78;;;7.40;63.70;;;;;;7358998;19;20042;-63
2022/03/16 00:05:40;;;;;;;62.67;33.78;;;7.40;63.60;;;;;;7356114;19;21113;-62
2022/03/16 00:08:09;;;;;;;62.95;33.13;;;7.40;63.90;;;;;;7363223;19;20034;-62
2022/03/16 00:10:39;;;;;;;67.07;33.75;;;7.40;64.20;;;;;;7362829;19;20074;-62
2022/03/16 00:13:12;;;;;;;64.60;34.67;;;7.40;64.10;;;;;;7359602;19;20014;-63
2022/03/16 00:15:42;;;;;;;66.78;34.67;;;7.40;64.10;;;;;;7375839;19;20019;-61
2022/03/16 00:18:13;;;;;;;62.85;32.03;;;7.40;64.10;;;;;;7360513;19;20022;-62
2022/03/16 00:20:43;;;;;;;64.88;34.58;;;7.40;64.00;;;;;;7361517;19;20950;-62
2022/03/16 00:23:12;;;;;;;59.33;31.70;;;7.30;63.40;;;;;;7358725;19;20014;-61
2022/03/16 00:25:43;;;;;;;63.33;33.97;;;7.40;63.80;;;;;;7351907;19;20098;-61
2022/03/16 00:28:15;;;;;;;62.22;33.83;;;7.30;63.60;;;;;;7361218;19;20021;-62
2022/03/16 00:30:45;;;;;;;64.90;33.65;;;7.30;63.70;;;;;;7383338;19;20082;-62
2022/03/16 00:33:15;;;;;;;61.42;32.45;;;7.40;63.60;;;;;;7358324;19;20034;-62
2022/03/16 00:35:45;;;;;;;63.38;33.08;;;7.30;63.20;;;;;;7362853;19;20541;-61
2022/03/16 00:38:16;;;;;;;60.15;34.28;;;7.30;63.20;;;;;;7368298;19;20007;-62
2022/03/16 00:40:46;;;;;;;63.35;34.50;;;7.30;62.70;;;;;;7369180;19;20099;-62
2022/03/16 00:43:19;;;;;;;60.63;33.63;;;7.30;63.20;;;;;;7361507;19;20019;-62
2022/03/16 00:45:48;;;;;;;59.05;32.67;;;7.30;63.10;;;;;;7384029;19;20489;-62
2022/03/16 00:48:18;;;;;;;56.70;32.10;;;7.30;63.00;;;;;;7367562;19;20010;-62
2022/03/16 00:50:48;;;;;;;64.97;34.45;;;7.30;63.10;;;;;;7368806;19;20016;-63
2022/03/16 00:53:18;;;;;;;66.18;34.75;;;7.30;63.70;;;;;;7364799;19;20018;-62
2022/03/16 00:55:48;;;;;;;62.58;34.50;;;7.30;63.70;;;;;;7361599;19;20355;-62
2022/03/16 00:58:20;;;;;;;60.85;32.28;;;7.30;63.20;;;;;;7366535;19;20007;-61
2022/03/16 01:00:50;;;;;;;61.42;33.38;;;7.30;63.00;;;;;;7391528;19;20473;-62
2022/03/16 01:03:20;;;;;;;58.50;31.55;;;7.20;62.90;;;;;;7364999;19;20002;-62
2022/03/16 01:05:50;;;;;;;65.53;34.13;;;7.30;63.10;;;;;;7361895;19;20022;-63
2022/03/16 01:08:20;;;;;;;66.88;33.45;;;7.30;62.70;;;;;;7368741;19;20090;-63
2022/03/16 01:10:50;;;;;;;60.75;33.03;;;7.30;62.70;;;;;;7365536;19;20011;-63
2022/03/16 01:13:23;;;;;;;64.40;33.80;;;7.30;62.40;;;;;;7363751;19;20018;-62
2022/03/16 01:15:53;;;;;;;63.63;34.17;;;7.30;62.50;;;;;;7384059;19;20017;-63
2022/03/16 01:18:22;;;;;;;65.90;34.42;;;7.30;62.40;;;;;;7367830;19;20021;-63
2022/03/16 01:20:52;;;;;;;70.65;36.05;;;7.30;62.70;;;;;;7368179;19;20015;-63
2022/03/16 01:23:22;;;;;;;74.38;37.25;;;7.30;62.40;;;;;;7364089;19;20031;-63
2022/03/16 01:25:52;;;;;;;74.10;36.60;;;7.30;62.70;;;;;;7360755;19;20003;-63
2022/03/16 01:28:25;;;;;;;76.43;37.80;;;7.20;63.10;;;;;;7367821;19;20007;-63
2022/03/16 01:30:54;;;;;;;71.70;36.10;;;7.30;63.40;;;;;;7389286;19;20029;-61
2022/03/16 01:33:24;;;;;;;70.30;36.60;;;7.30;63.60;;;;;;7361265;19;20045;-62
2022/03/16 01:35:54;;;;;;;73.68;36.00;;;7.30;63.10;;;;;;7361291;19;20011;-63
2022/03/16 01:38:24;;;;;;;69.90;36.60;;;7.30;64.10;;;;;;7366605;19;20478;-61
2022/03/16 01:40:55;;;;;;;71.18;36.33;;;7.40;64.10;;;;;;7365476;19;20030;-62
2022/03/16 01:43:27;;;;;;;72.80;36.72;;;7.30;62.60;;;;;;7362141;19;20015;-62
2022/03/16 01:45:57;;;;;;;76.68;36.28;;;7.30;63.60;;;;;;7381814;19;20006;-62
2022/03/16 01:48:27;;;;;;;69.25;34.97;;;7.30;63.80;;;;;;7366712;19;20010;-62
2022/03/16 01:50:57;;;;;;;72.35;35.80;;;7.20;63.30;;;;;;7366996;19;20028;-61
2022/03/16 01:53:28;;;;;;;74.68;37.30;;;7.20;64.10;;;;;;7362805;19;20015;-62
2022/03/16 01:55:58;;;;;;;73.18;36.03;;;7.10;63.30;;;;;;7360523;19;20006;-62
2022/03/16 01:58:30;;;;;;;82.72;38.55;;;7.20;63.00;;;;;;7367339;19;20089;-63
2022/03/16 02:01:00;;;;;;;73.03;36.00;;;7.20;63.90;;;;;;7386700;19;20025;-62
2022/03/16 02:03:30;;;;;;;73.05;36.75;;;7.20;63.80;;;;;;7361027;19;20015;-62
2022/03/16 02:06:00;;;;;;;70.32;35.28;;;7.20;63.00;;;;;;7360249;19;20069;-62
2022/03/16 02:08:30;;;;;;;71.40;36.22;;;7.20;63.50;;;;;;7367239;19;20014;-62
2022/03/16 02:11:00;;;;;;;83.43;37.60;;;7.20;63.90;;;;;;7367034;19;20018;-62
2022/03/16 02:13:34;;;;;;;77.22;36.40;;;7.20;63.50;;;;;;7362271;19;20015;-62
2022/03/16 02:16:04;;;;;;;75.30;37.72;;;7.20;63.70;;;;;;7365480;19;20007;-61
2022/03/16 02:18:34;;;;;;;80.05;37.72;;;7.20;63.40;;;;;;7387163;19;20014;-62
2022/03/16 02:21:08;;;;;;;84.57;37.75;;;7.20;64.00;;;;;;7366140;19;20089;-63
2022/03/16 02:23:40;;;;;;;81.22;38.90;;;7.10;63.80;;;;;;7361813;19;20352;-62
2022/03/16 02:26:13;;;;;;;80.88;39.05;;;7.10;63.90;;;;;;7360403;19;20488;-63
2022/03/16 02:28:43;;;;;;;81.63;37.55;;;7.10;63.60;;;;;;7366255;19;20099;-62
2022/03/16 02:31:14;;;;;;;82.15;38.05;;;7.10;63.10;;;;;;7365157;19;20011;-62
2022/03/16 02:33:44;;;;;;;80.32;37.28;;;7.20;63.50;;;;;;7382495;19;20458;-62
2022/03/16 02:36:14;;;;;;;82.00;37.78;;;7.20;63.60;;;;;;7358683;19;20006;-62
2022/03/16 02:38:47;;;;;;;80.25;38.15;;;7.20;64.00;;;;;;7364816;19;20019;-62
2022/03/16 02:41:17;;;;;;;78.75;36.60;;;7.20;63.60;;;;;;7365133;19;20219;-62
2022/03/16 02:43:46;;;;;;;80.32;37.92;;;7.20;64.00;;;;;;7360950;19;20021;-62
2022/03/16 02:46:16;;;;;;;79.97;36.80;;;7.10;63.90;;;;;;7358033;19;20021;-62
2022/03/16 02:48:46;;;;;;;76.60;38.58;;;7.20;64.10;;;;;;7386564;19;20014;-62
2022/03/16 02:51:17;;;;;;;84.60;39.78;;;7.00;63.70;;;;;;7365246;19;20010;-62
2022/03/16 02:53:49;;;;;;;81.43;38.15;;;7.00;63.90;;;;;;7359655;19;20494;-61
2022/03/16 02:56:19;;;;;;;87.50;40.70;;;7.10;64.10;;;;;;7356813;19;20086;-62
2022/03/16 02:58:49;;;;;;;82.57;38.70;;;7.10;64.10;;;;;;7364234;19;20011;-62
2022/03/16 03:01:19;;;;;;;83.05;37.67;;;7.00;64.00;;;;;;7363244;19;20010;-63
2022/03/16 03:03:49;;;;;;;86.10;40.35;;;7.00;64.00;;;;;;7381755;19;20019;-63
2022/03/16 03:06:19;;;;;;;80.85;39.75;;;7.10;64.70;;;;;;7357825;19;20015;-63
2022/03/16 03:08:51;;;;;;;83.95;38.10;;;7.10;64.20;;;;;;7363342;19;20018;-63
2022/03/16 03:11:21;;;;;;;90.32;39.78;;;7.10;64.30;;;;;;7364768;19;20070;-62
2022/03/16 03:13:51;;;;;;;97.82;41.70;;;7.10;64.70;;;;;;7357558;19;20014;-62
2022/03/16 03:16:22;;;;;;;90.78;42.53;;;7.10;64.60;;;;;;7357112;19;20028;-62
2022/03/16 03:18:52;;;;;;;86.10;42.20;;;7.20;64.30;;;;;;7384260;19;20035;-62
2022/03/16 03:21:22;;;;;;;93.97;40.88;;;7.10;64.50;;;;;;7361732;19;20015;-62
2022/03/16 03:23:54;;;;;;;93.30;41.28;;;7.10;64.20;;;;;;7358715;19;20015;-61
2022/03/16 03:26:24;;;;;;;93.70;40.80;;;7.10;64.40;;;;;;7358181;19;20010;-63
2022/03/16 03:28:54;;;;;;;86.75;40.55;;;7.20;64.30;;;;;;7364164;19;20066;-61
2022/03/16 03:31:26;;;;;;;95.68;43.88;;;7.20;64.70;;;;;;7361570;19;20014;-61
2022/03/16 03:33:56;;;;;;;96.03;43.65;;;7.20;64.50;;;;;;7380265;19;20014;-62
2022/03/16 03:36:26;;;;;;;87.35;40.80;;;7.10;64.20;;;;;;7357802;19;20010;-61
2022/03/16 03:38:59;;;;;;;98.88;43.67;;;7.10;64.10;;;;;;7362651;19;20055;-62
2022/03/16 03:41:29;;;;;;;84.82;40.13;;;7.10;64.50;;;;;;7363302;19;20077;-62
2022/03/16 03:43:59;;;;;;;93.32;42.78;;;7.10;64.70;;;;;;7359311;19;20036;-62
2022/03/16 03:46:29;;;;;;;88.60;40.70;;;7.10;64.40;;;;;;7357343;19;20449;-62
2022/03/16 03:48:59;;;;;;;92.63;41.67;;;7.10;64.80;;;;;;7385220;19;20014;-62
2022/03/16 03:51:29;;;;;;;103.32;43.42;;;7.10;64.40;;;;;;7362837;19;20417;-62
2022/03/16 03:54:01;;;;;;;89.93;41.05;;;7.10;64.60;;;;;;7358265;19;20019;-61
2022/03/16 03:56:31;;;;;;;97.18;42.22;;;7.10;64.80;;;;;;7356916;19;20022;-64
2022/03/16 03:59:01;;;;;;;95.20;43.10;;;7.10;64.20;;;;;;7363466;19;20031;-62
2022/03/16 04:01:31;;;;;;;95.68;43.25;;;7.10;64.90;;;;;;7362232;19;20125;-62
2022/03/16 04:04:01;;;;;;;101.07;43.72;;;7.10;65.30;;;;;;7380896;19;20011;-62
2022/03/16 04:06:31;;;;;;;109.20;46.33;;;7.10;65.20;;;;;;7357112;19;20019;-62
2022/03/16 04:09:04;;;;;;;100.70;45.42;;;7.10;65.40;;;;;;7367703;19;20552;-63
2022/03/16 04:11:34;;;;;;;96.57;43.80;;;7.10;65.70;;;;;;7368995;19;20474;-62
2022/03/16 04:14:04;;;;;;;111.25;45.97;;;7.20;65.70;;;;;;7365415;19;20721;-62
2022/03/16 04:16:34;;;;;;;108.90;45.88;;;7.10;65.80;;;;;;7364842;19;20030;-62
2022/03/16 04:19:04;;;;;;;110.35;46.78;;;7.10;66.00;;;;;;7377303;19;20042;-62
2022/03/16 04:21:34;;;;;;;108.43;45.22;;;7.10;65.80;;;;;;7388637;19;20014;-63
2022/03/16 04:24:07;;;;;;;105.05;44.78;;;7.10;65.80;;;;;;7363441;19;20016;-61
2022/03/16 04:26:37;;;;;;;97.82;43.35;;;7.10;65.80;;;;;;7363449;19;20025;-61
2022/03/16 04:29:07;;;;;;;106.03;44.30;;;7.10;65.70;;;;;;7369241;19;20415;-62
2022/03/16 04:31:37;;;;;;;96.65;43.45;;;7.10;65.90;;;;;;7369216;19;20015;-62
2022/03/16 04:34:07;;;;;;;110.95;45.13;;;7.20;65.90;;;;;;7364154;19;20018;-63
2022/03/16 04:36:37;;;;;;;100.07;43.88;;;7.10;66.00;;;;;;7385894;19;20034;-61
2022/03/16 04:39:09;;;;;;;102.93;45.83;;;7.20;66.30;;;;;;7368518;19;20540;-62
2022/03/16 04:41:39;;;;;;;101.60;43.30;;;7.10;65.50;;;;;;7366855;19;20018;-62
2022/03/16 04:44:09;;;;;;;98.78;45.17;;;7.10;66.10;;;;;;7364357;19;20032;-62
2022/03/16 04:46:39;;;;;;;96.18;45.63;;;7.10;66.20;;;;;;7363689;19;20093;-62
2022/03/16 04:49:09;;;;;;;96.93;43.35;;;7.10;66.50;;;;;;7369230;19;20022;-63
2022/03/16 04:51:40;;;;;;;95.90;42.65;;;7.10;66.40;;;;;;7389778;19;20015;-61
2022/03/16 04:54:14;;;;;;;105.18;46.05;;;7.10;66.70;;;;;;7363029;19;20014;-62
2022/03/16 04:56:44;;;;;;;104.70;44.65;;;7.20;66.90;;;;;;7363130;19;20082;-62
2022/03/16 04:59:14;;;;;;;111.28;47.10;;;7.10;66.50;;;;;;7368548;19;20358;-62
2022/03/16 05:01:44;;;;;;;108.97;44.90;;;7.20;67.00;;;;;;7366247;19;20116;-62
2022/03/16 05:04:17;;;;;;;104.03;46.10;;;7.20;66.90;;;;;;7365180;19;20108;-62
2022/03/16 05:06:47;;;;;;;114.43;47.17;;;7.20;66.80;;;;;;7384396;19;20520;-61
2022/03/16 05:09:19;;;;;;;120.85;47.05;;;7.10;66.80;;;;;;7367793;19;20086;-62
2022/03/16 05:11:49;;;;;;;109.47;47.83;;;7.20;67.00;;;;;;7366033;19;20010;-62
2022/03/16 05:14:19;;;;;;;116.88;46.95;;;7.20;67.00;;;;;;7365147;19;20007;-62
2022/03/16 05:16:49;;;;;;;117.47;47.55;;;7.20;66.90;;;;;;7362684;19;20070;-61
2022/03/16 05:19:19;;;;;;;111.38;47.83;;;7.20;66.90;;;;;;7366471;19;20467;-61
2022/03/16 05:21:49;;;;;;;109.25;46.95;;;7.20;66.90;;;;;;7386256;19;20025;-62
2022/03/16 05:24:23;;;;;;;107.63;47.15;;;7.20;67.50;;;;;;7362420;19;20101;-62
2022/03/16 05:26:55;;;;;;;100.53;45.22;;;7.20;67.40;;;;;;7362133;19;20010;-62
2022/03/16 05:29:25;;;;;;;109.93;46.60;;;7.20;67.10;;;;;;7368188;19;20122;-62
2022/03/16 05:31:54;;;;;;;110.53;47.67;;;7.20;67.40;;;;;;7365217;19;20011;-61
2022/03/16 05:34:25;;;;;;;91.68;42.30;;;7.20;67.30;;;;;;7366037;19;20007;-62
2022/03/16 05:36:55;;;;;;;93.30;41.15;;;7.10;66.50;;;;;;7382312;19;20022;-63
2022/03/16 05:39:28;;;;;;;90.30;39.90;;;7.10;64.30;;;;;;7367641;19;20010;-62
2022/03/16 05:41:58;;;;;;;85.22;41.10;;;7.10;63.50;;;;;;7362031;19;20010;-62
2022/03/16 05:44:27;;;;;;;83.40;38.20;;;7.10;63.90;;;;;;7365201;19;20425;-62
2022/03/16 05:46:58;;;;;;;73.80;35.67;;;7.10;63.00;;;;;;7361156;19;20082;-62
2022/03/16 05:49:28;;;;;;;71.78;35.90;;;7.10;61.70;;;;;;7366870;19;20018;-62
2022/03/16 05:52:01;;;;;;;76.43;38.05;;;7.00;60.80;;;;;;7384817;19;20038;-62
2022/03/16 05:54:33;;;;;;;69.40;35.42;;;7.00;61.10;;;;;;7364889;19;20032;-62
2022/03/16 05:57:03;;;;;;;69.57;34.60;;;7.00;59.70;;;;;;7360751;19;20089;-62
2022/03/16 05:59:36;;;;;;;66.53;33.70;;;7.00;58.20;;;;;;7367235;19;20026;-62
2022/03/16 06:02:06;;;;;;;69.28;33.53;;;7.00;57.00;;;;;;7361786;19;20018;-61
2022/03/16 06:04:39;;;;;;;62.75;33.40;;;7.00;55.70;;;;;;7365424;19;20048;-62
2022/03/16 06:07:10;;;;;;;60.33;31.75;;;7.00;54.50;;;;;;7360449;19;20368;-62
2022/03/16 06:09:44;;;;;;;60.42;32.67;;;7.00;54.10;;;;;;7386860;19;20022;-62
2022/03/16 06:12:14;;;;;;;61.22;31.92;;;7.00;52.40;;;;;;7362575;19;20079;-62
2022/03/16 06:14:44;;;;;;;60.58;30.80;;;7.00;51.90;;;;;;7365154;19;20021;-62
2022/03/16 06:17:14;;;;;;;58.33;31.33;;;6.90;51.50;;;;;;7362099;19;20017;-62
2022/03/16 06:19:44;;;;;;;56.75;30.65;;;7.00;51.20;;;;;;7365019;19;20098;-62
2022/03/16 06:22:14;;;;;;;57.65;31.02;;;6.90;49.90;;;;;;7360819;19;20002;-61
2022/03/16 06:24:46;;;;;;;57.20;30.13;;;6.80;49.20;;;;;;7384880;19;20025;-62
2022/03/16 06:27:16;;;;;;;56.75;29.88;;;6.90;49.20;;;;;;7360563;19;20101;-61
2022/03/16 06:29:46;;;;;;;53.95;29.05;;;6.80;47.70;;;;;;7363922;19;20021;-61
2022/03/16 06:32:16;;;;;;;55.55;30.35;;;6.80;47.80;;;;;;7358720;19;20010;-62
2022/03/16 06:34:46;;;;;;;54.95;31.25;;;6.80;47.40;;;;;;7362266;19;20120;-62
2022/03/16 06:37:16;;;;;;;54.13;30.00;;;6.80;47.60;;;;;;7359308;19;20369;-61
2022/03/16 06:39:49;;;;;;;61.72;31.85;;;6.80;47.70;;;;;;7386103;19;20342;-61
2022/03/16 06:42:19;;;;;;;54.63;30.88;;;6.80;47.50;;;;;;7360402;19;20010;-61
2022/03/16 06:44:49;;;;;;;55.35;30.17;;;6.80;47.10;;;;;;7360564;19;20014;-61
2022/03/16 06:47:19;;;;;;;51.53;30.05;;;6.80;47.30;;;;;;7358797;19;20521;-62
2022/03/16 06:49:49;;;;;;;56.78;30.17;;;6.80;47.10;;;;;;7363537;19;20045;-62
2022/03/16 06:52:19;;;;;;;52.90;30.33;;;6.80;47.00;;;;;;7359523;19;20017;-62
2022/03/16 06:54:51;;;;;;;52.35;29.60;;;6.80;47.50;;;;;;7382314;19;20074;-61
2022/03/16 06:57:21;;;;;;;57.47;31.25;;;6.90;47.80;;;;;;7359981;19;20007;-61
2022/03/16 07:00:02;;;;;;;57.40;30.42;;;6.90;47.60;;;;;;7363200;19;20791;-60
2022/03/16 07:02:32;;;;;;;52.80;29.95;;;7.00;47.60;;;;;;7358955;19;20017;-61
2022/03/16 07:05:02;;;;;;;49.85;28.48;;;7.00;46.30;;;;;;7361458;19;20101;-61
2022/03/16 07:07:32;;;;;;;55.63;31.23;;;7.00;46.80;;;;;;7359568;19;20014;-61
2022/03/16 07:10:06;;;;;;;54.55;29.45;;;7.00;46.00;;;;;;7386145;19;20019;-62
2022/03/16 07:12:36;;;;;;;53.47;29.67;;;6.90;45.70;;;;;;7360004;19;20022;-62
2022/03/16 07:15:08;;;;;;;51.45;27.30;;;6.90;46.20;;;;;;7359229;19;20263;-62
2022/03/16 07:17:37;;;;;;;49.85;26.67;;;6.90;46.10;;;;;;7359411;19;20014;-60
2022/03/16 07:20:09;;;;;;;50.67;28.27;;;7.00;46.20;;;;;;7361268;19;20015;-61
2022/03/16 07:22:40;;;;;;;52.20;30.40;;;7.00;46.10;;;;;;7359666;19;20017;-61
2022/03/16 07:25:27;;;;;;;51.20;29.05;;;7.00;45.00;;;;;;7358528;19;20187;-61
2022/03/16 07:27:57;;;;;;;49.90;28.27;;;7.10;45.10;;;;;;7384180;19;20031;-62
2022/03/16 07:30:27;;;;;;;52.30;28.38;;;7.10;44.30;;;;;;7362830;19;20037;-62
2022/03/16 07:32:57;;;;;;;51.42;29.23;;;7.10;43.90;;;;;;7358973;19;20002;-62
2022/03/16 07:35:27;;;;;;;49.25;27.27;;;7.10;44.40;;;;;;7358629;19;20433;-62
2022/03/16 07:37:58;;;;;;;48.60;28.98;;;7.10;44.50;;;;;;7362008;19;20029;-61
2022/03/16 07:40:33;;;;;;;55.38;28.05;;;7.20;44.60;;;;;;7362972;19;20474;-61
2022/03/16 07:43:03;;;;;;;49.00;28.20;;;7.20;44.00;;;;;;7380716;19;20030;-66
2022/03/16 07:45:33;;;;;;;53.65;28.60;;;7.20;43.90;;;;;;7383758;19;20403;-62
2022/03/16 07:48:04;;;;;;;48.88;27.65;;;7.30;43.40;;;;;;7368690;19;20491;-60
2022/03/16 07:50:34;;;;;;;49.35;27.80;;;7.20;41.10;;;;;;7368990;19;20470;-61
2022/03/16 07:53:06;;;;;;;49.45;27.13;;;7.20;42.30;;;;;;7366404;19;20022;-61
2022/03/16 07:55:39;;;;;;;47.10;25.70;;;7.20;42.90;;;;;;7362682;19;20014;-62
2022/03/16 07:58:08;;;;;;;46.28;25.90;;;7.30;41.80;;;;;;7368683;19;20021;-62
2022/03/16 08:00:38;;;;;;;45.53;26.52;;;7.30;41.80;;;;;;7391082;19;20025;-61
2022/03/16 08:03:09;;;;;;;49.67;27.15;;;7.30;42.80;;;;;;7363485;19;20027;-62
2022/03/16 08:05:39;;;;;;;46.35;25.83;;;7.30;40.90;;;;;;7361338;19;20043;-62
2022/03/16 08:08:09;;;;;;;45.90;25.52;;;7.20;40.10;;;;;;7369873;19;20018;-62
2022/03/16 08:10:42;;;;;;;44.95;25.10;;;7.20;39.70;;;;;;7368962;19;20028;-62
2022/03/16 08:13:12;;;;;;;45.00;25.75;;;7.20;40.20;;;;;;7363594;19;20006;-62
2022/03/16 08:15:42;;;;;;;43.03;25.27;;;7.30;39.60;;;;;;7382105;19;20100;-61
2022/03/16 08:18:15;;;;;;;45.97;25.05;;;7.30;39.90;;;;;;7367447;19;20503;-63
2022/03/16 08:20:45;;;;;;;44.03;24.60;;;7.50;40.10;;;;;;7367723;19;20018;-62
2022/03/16 08:23:15;;;;;;;44.03;23.67;;;7.50;39.00;;;;;;7364121;19;20021;-61
2022/03/16 08:26:02;;;;;;;41.80;23.55;;;7.60;38.00;;;;;;7363272;19;20018;-64
2022/03/16 08:28:32;;;;;;;42.85;24.33;;;7.60;36.60;;;;;;7368486;19;20767;-63
2022/03/16 08:31:02;;;;;;;42.13;24.05;;;7.60;37.10;;;;;;7390864;19;20018;-63
2022/03/16 08:33:32;;;;;;;40.80;24.15;;;7.70;36.10;;;;;;7365025;19;20022;-62
2022/03/16 08:36:07;;;;;;;44.72;23.02;;;7.70;36.10;;;;;;7361916;19;20019;-62
2022/03/16 08:38:38;;;;;;;46.20;25.58;;;7.70;36.10;;;;;;7368244;19;20024;-61
2022/03/16 08:41:11;;;;;;;40.88;22.98;;;7.70;36.10;;;;;;7368920;19;20014;-62
2022/03/16 08:43:41;;;;;;;45.22;24.08;;;7.70;36.10;;;;;;7363322;19;20093;-61
2022/03/16 08:46:11;;;;;;;41.25;22.90;;;7.80;35.50;;;;;;7362598;19;20470;-62
2022/03/16 08:48:41;;;;;;;41.53;24.20;;;7.80;34.60;;;;;;7389409;19;20010;-62
2022/03/16 08:51:10;;;;;;;42.95;24.58;;;7.80;35.30;;;;;;7367657;19;20122;-62
2022/03/16 08:53:40;;;;;;;42.22;20.98;;;8.00;34.60;;;;;;7361663;19;20018;-62
2022/03/16 08:56:13;;;;;;;43.03;23.40;;;7.90;33.50;;;;;;7361199;19;20014;-62
2022/03/16 08:58:43;;;;;;;41.78;23.00;;;7.90;34.80;;;;;;7368082;19;20006;-61
2022/03/16 09:01:13;;;;;;;41.53;22.40;;;7.90;32.30;;;;;;7368118;19;20632;-61
2022/03/16 09:03:43;;;;;;;38.28;22.42;;;7.90;32.90;;;;;;7384173;19;20014;-62
2022/03/16 09:06:13;;;;;;;39.90;21.75;;;8.10;32.80;;;;;;7362590;19;20077;-62
2022/03/16 09:08:43;;;;;;;39.30;21.27;;;8.10;30.80;;;;;;7366858;19;20010;-62
2022/03/16 09:11:16;;;;;;;37.42;22.33;;;8.20;30.70;;;;;;7366930;19;20070;-61
2022/03/16 09:13:47;;;;;;;32.97;20.02;;;8.20;30.80;;;;;;7361825;19;20499;-62
2022/03/16 09:16:17;;;;;;;36.65;20.25;;;8.30;30.00;;;;;;7361063;19;20788;-61
2022/03/16 09:18:49;;;;;;;39.20;22.15;;;8.30;28.90;;;;;;7389233;19;20018;-62
2022/03/16 09:21:19;;;;;;;34.58;20.85;;;8.30;29.30;;;;;;7366452;19;20036;-62
2022/03/16 09:23:49;;;;;;;34.10;20.45;;;8.50;28.60;;;;;;7361367;19;20033;-61
2022/03/16 09:26:24;;;;;;;33.08;19.48;;;8.70;28.40;;;;;;7360863;19;20031;-62
2022/03/16 09:28:55;;;;;;;32.10;19.98;;;8.60;28.60;;;;;;7363564;19;20025;-62
2022/03/16 09:31:25;;;;;;;30.98;19.63;;;8.60;27.10;;;;;;7365544;19;20139;-62
2022/03/16 09:33:56;;;;;;;31.63;19.77;;;8.70;26.40;;;;;;7382525;19;20117;-62
2022/03/16 09:36:26;;;;;;;35.13;18.67;;;8.80;27.50;;;;;;7359722;19;20465;-61
2022/03/16 09:38:56;;;;;;;32.22;19.80;;;8.90;24.70;;;;;;7365218;19;20010;-62
2022/03/16 09:41:29;;;;;;;30.77;18.67;;;9.10;24.30;;;;;;7365168;19;20035;-63
2022/03/16 09:44:05;;;;;;;34.15;19.60;;;9.20;24.20;;;;;;7360056;19;20061;-63
2022/03/16 09:46:37;;;;;;;33.75;20.08;;;9.40;24.30;;;;;;7359493;19;20020;-62
2022/03/16 09:49:07;;;;;;;33.55;19.83;;;9.30;22.40;;;;;;7365383;19;20022;-63
2022/03/16 09:51:38;;;;;;;32.17;19.40;;;9.30;22.90;;;;;;7387869;19;20341;-62
2022/03/16 09:54:08;;;;;;;31.10;19.33;;;9.40;23.20;;;;;;7361062;19;20553;-61
2022/03/16 09:56:41;;;;;;;39.83;23.17;;;9.10;22.80;;;;;;7359824;19;20515;-62
2022/03/16 09:59:11;;;;;;;39.35;21.17;;;9.30;25.50;;;;;;7366541;19;20006;-62
2022/03/16 10:01:41;;;;;;;33.33;20.35;;;9.40;24.40;;;;;;7364949;19;20090;-63
2022/03/16 10:04:13;;;;;;;34.22;20.52;;;9.40;23.90;;;;;;7357876;19;20018;-62
2022/03/16 10:06:43;;;;;;;37.75;20.75;;;9.40;22.90;;;;;;7380735;19;20014;-62
2022/03/16 10:15:10;;;;;;;31.02;19.67;;;9.60;20.90;;;;;;7358440;19;20214;-62
2022/03/16 10:17:46;;;;;;;33.80;19.10;;;9.60;21.70;;;;;;7359426;19;20043;-63
2022/03/16 10:20:26;;;;;;;31.52;19.33;;;9.40;22.40;;;;;;7366125;19;20011;-62
2022/03/16 10:23:01;;;;;;;29.33;19.33;;;9.80;21.20;;;;;;7362460;19;20122;-61
2022/03/16 10:25:33;;;;;;;30.80;19.70;;;9.70;21.30;;;;;;7359800;19;20121;-63
2022/03/16 10:28:24;;;;;;;31.73;19.25;;;9.90;22.00;;;;;;7387202;19;20479;-63
2022/03/16 10:30:58;;;;;;;30.20;18.08;;;10.30;16.30;;;;;;7364612;19;20011;-62
2022/03/16 10:33:32;;;;;;;32.78;19.50;;;10.40;15.30;;;;;;7359745;19;20010;-62
2022/03/16 10:36:06;;;;;;;37.13;19.52;;;10.70;15.60;;;;;;7357566;19;20010;-62
2022/03/16 10:38:40;;;;;;;30.33;19.10;;;10.70;11.90;;;;;;7363717;19;20070;-62
2022/03/16 10:46:50;;;;;;;30.15;18.25;;;10.60;11.70;;;;;;7357637;19;20089;-63
2022/03/16 10:49:22;;;;;;;29.27;18.15;;;10.70;10.60;;;;;;7363690;19;20133;-62
2022/03/16 10:52:05;;;;;;;27.83;17.45;;;11.10;10.50;;;;;;7384370;19;20007;-62
2022/03/16 10:54:37;;;;;;;27.85;16.98;;;10.90;8.80;;;;;;7361354;19;20028;-62
2022/03/16 10:57:10;;;;;;;26.75;16.27;;;11.00;9.30;;;;;;7358374;19;20010;-62
2022/03/16 10:59:48;;;;;;;31.42;19.90;;;11.00;8.40;;;;;;7364046;19;20046;-62
2022/03/16 11:02:21;;;;;;;24.95;17.08;;;11.30;8.50;;;;;;7360142;19;20386;-61
2022/03/16 11:04:53;;;;;;;29.40;17.83;;;11.10;7.80;;;;;;7359600;19;20008;-61
2022/03/16 11:07:23;;;;;;;23.42;15.77;;;11.30;8.60;;;;;;7359031;19;20010;-62
2022/03/16 11:09:54;;;;;;;26.80;16.40;;;11.10;6.80;;;;;;7384924;19;20018;-62
2022/03/16 11:15:14;;;;;;;27.85;17.17;;;11.30;6.00;;;;;;7357545;19;20087;-63
2022/03/16 11:17:44;;;;;;;24.98;18.05;;;11.70;5.20;;;;;;7357390;19;20426;-63
2022/03/16 11:20:15;;;;;;;22.20;15.52;;;11.50;5.10;;;;;;7362592;19;20190;-64
2022/03/16 11:25:41;;;;;;;23.77;15.88;;;11.30;4.90;;;;;;7353686;19;20098;-62
2022/03/16 11:28:19;;;;;;;26.10;16.10;;;11.20;4.80;;;;;;7361799;19;20503;-62
2022/03/16 11:30:54;;;;;;;24.17;15.20;;;11.40;5.60;;;;;;7383035;19;20018;-62
2022/03/16 11:33:24;;;;;;;27.38;16.08;;;11.20;4.00;;;;;;7357600;19;20042;-62
2022/03/16 11:35:55;;;;;;;24.27;16.17;;;11.60;4.20;;;;;;7355178;19;20093;-63
2022/03/16 11:38:24;;;;;;;21.77;15.60;;;11.60;3.00;;;;;;7362009;19;20085;-62
2022/03/16 11:40:54;;;;;;;24.25;16.02;;;11.60;2.90;;;;;;7360376;19;20428;-62
2022/03/16 11:43:26;;;;;;;23.15;16.08;;;11.60;3.80;;;;;;7357272;19;20094;-62
2022/03/16 11:45:59;;;;;;;24.45;15.93;;;11.50;4.20;;;;;;7376611;19;20022;-62
2022/03/16 11:48:58;;;;;;;24.00;15.15;;;11.60;2.70;;;;;;7362709;19;20035;-61
2022/03/16 11:51:28;;;;;;;22.75;15.43;;;11.90;2.30;;;;;;7362218;19;20554;-64
2022/03/16 11:54:14;;;;;;;24.08;17.13;;;11.90;1.60;;;;;;7356728;19;20442;-62
2022/03/16 11:56:47;;;;;;;21.88;14.77;;;12.20;1.10;;;;;;7357411;19;20010;-62
2022/03/16 11:59:40;;;;;;;26.97;16.63;;;12.10;1.00;;;;;;7361468;19;20022;-62
2022/03/16 12:02:30;;;;;;;25.15;16.52;;;11.70;1.50;;;;;;7357463;19;20259;-62
2022/03/16 12:05:04;;;;;;;25.05;15.50;;;11.60;3.70;;;;;;7357178;19;20018;-61
2022/03/16 12:07:36;;;;;;;23.10;15.52;;;11.40;3.80;;;;;;7355063;19;20371;-63
2022/03/16 12:10:15;;;;;;;24.88;16.02;;;11.60;3.80;;;;;;7360645;19;20026;-64
2022/03/16 12:12:54;;;;;;;23.75;15.05;;;12.10;3.30;;;;;;7371466;19;20019;-63
2022/03/16 12:15:28;;;;;;;24.30;15.63;;;12.30;1.00;;;;;;7355863;19;20040;-64
2022/03/16 12:18:26;;;;;;;22.95;15.68;;;12.40;1.80;;;;;;7360315;19;20094;-63
2022/03/16 12:21:04;;;;;;;22.23;15.65;;;12.40;1.00;;;;;;7362163;19;20041;-63
2022/03/16 12:25:08;;;;;;;26.08;15.80;;;12.40;1.00;;;;;;7357260;19;20340;-63
2022/03/16 12:29:36;;;;;;;23.67;16.30;;;12.70;1.00;;;;;;7365400;19;20021;-63
2022/03/16 12:32:07;;;;;;;24.58;16.02;;;12.40;1.00;;;;;;7366494;19;20011;-62
2022/03/16 12:34:41;;;;;;;20.20;15.40;;;12.60;1.00;;;;;;7366341;19;20081;-63
2022/03/16 12:37:14;;;;;;;24.80;16.27;;;12.80;1.00;;;;;;7368524;19;20024;-64
2022/03/16 12:39:48;;;;;;;21.73;15.90;;;12.40;1.00;;;;;;7390042;19;20024;-62
2022/03/16 12:45:09;;;;;;;26.42;16.90;;;12.00;1.00;;;;;;7365530;19;20014;-63
2022/03/16 12:47:44;;;;;;;22.30;15.95;;;12.00;1.00;;;;;;7368377;19;20083;-63
2022/03/16 12:50:19;;;;;;;26.30;16.30;;;12.10;1.00;;;;;;7365639;19;20017;-62
2022/03/16 12:52:52;;;;;;;21.73;15.55;;;12.20;1.00;;;;;;7359546;19;20017;-64
2022/03/16 12:55:23;;;;;;;23.83;15.40;;;12.10;1.00;;;;;;7364226;19;20022;-63
2022/03/16 12:57:56;;;;;;;22.38;14.93;;;12.00;1.00;;;;;;7388267;19;20398;-63
2022/03/16 13:00:38;;;;;;;21.42;15.00;;;12.10;1.10;;;;;;7366268;19;20087;-63
2022/03/16 13:03:15;;;;;;;23.38;15.80;;;11.90;1.00;;;;;;7359972;19;20014;-64
2022/03/16 13:05:49;;;;;;;23.02;14.93;;;12.00;1.00;;;;;;7364870;19;20009;-63
2022/03/16 13:08:19;;;;;;;21.77;14.68;;;12.10;1.00;;;;;;7367176;19;20014;-61
2022/03/16 13:13:31;;;;;;;26.40;16.08;;;12.20;1.00;;;;;;7360436;19;20017;-62
2022/03/16 13:16:02;;;;;;;24.40;15.40;;;12.30;1.00;;;;;;7387535;19;20036;-62
2022/03/16 13:18:33;;;;;;;21.27;14.63;;;12.40;1.00;;;;;;7365426;19;20098;-62
2022/03/16 13:21:25;;;;;;;22.30;14.43;;;12.40;1.00;;;;;;7365169;19;20015;-63
2022/03/16 13:24:10;;;;;;;21.67;14.40;;;12.20;1.00;;;;;;7358452;19;20490;-64